Terminal Aerodrome Forecast
Issued by NWS Jackson, MS

Current Version | Previous Version | Text Only | Print | Product List | Glossary On
Versions: 1 2 3 4 5 6 7 8 9 10 11 12 13 14 15 16 17 18
000
FTUS44 KJAN 300539
TAFGLH
TAF
KGLH 300539Z 3006/0106 23008KT P6SM FEW060 SCT250
     FM300800 23008KT P6SM VCTS SCT030 BKN050CB
     FM301200 27015G25KT P6SM TSRA BKN035CB
     FM301500 27012KT P6SM VCSH BKN060 OVC100
     FM302300 26010KT P6SM SCT050=

USA.gov is the U.S. government's official web portal to all federal, state and local government web resources and services.